Lower San Francisco Plaza, New Mexico
Current Conditions -  °F | °C
As of 10:54 PM on Saturday 20 Dec 2014 (Local Time) from KSJN Reporting Station
Clear Clear  
Wind Chill: 32°   Ceiling: Unl
Heat Index: 32°   Visibility: 10mi
Dew Point: 26°   Wind: 0mph
Humidity: 79%   Direction: NA
Pressure: 30.11"   Gusts: NA
Location:  33.6665°N, 108.765°W
Report Text: KSJN 210554Z AUTO 00000KT 10SM CLR 00/M03 A3011 RMK AO2 SLP192 T00001033 10067 21011 58004
Loading
Personal Weather Stations






























Interactive Weather Map New forecast layout! Learn more

10-Day Weather Forecast

Advertisements
Track Severe Weather on mobile